Time,TemperatureF,DewpointF,PressureIn,WindDirection,WindDirectionDegrees,WindSpeedMPH,WindSpeedGustMPH,Humidity,HourlyPrecipIn,Conditions,Clouds,dailyrainin,SoftwareType,DateUTC
2013-02-11 00:11:00,36.0,1.0,30.22,ENE,69,4.0,12.0,23,0.00,,,0.18,weatherlink.com 1.10,2013-02-11 05:11:00,
2013-02-11 00:26:00,35.6,1.0,30.20,East,87,8.0,14.0,23,0.00,,,0.18,weatherlink.com 1.10,2013-02-11 05:26:00,
2013-02-11 00:41:00,35.9,1.0,30.19,SE,141,5.0,18.0,23,0.00,,,0.00,weatherlink.com 1.10,2013-02-11 05:41:00,
2013-02-11 00:57:00,35.9,2.0,30.18,East,86,5.0,15.0,24,0.00,,,0.00,weatherlink.com 1.10,2013-02-11 05:57:00,
2013-02-11 01:11:00,35.9,1.0,30.18,NNE,31,5.0,17.0,23,0.00,,,0.00,weatherlink.com 1.10,2013-02-11 06:11:00,
2013-02-11 01:26:00,36.4,4.0,30.17,East,82,6.0,15.0,25,0.00,,,0.00,weatherlink.com 1.10,2013-02-11 06:26:00,
2013-02-11 01:41:00,37.3,3.0,30.17,SE,126,4.0,18.0,23,0.00,,,0.00,weatherlink.com 1.10,2013-02-11 06:41:00,
2013-02-11 01:56:00,38.2,3.0,30.16,SE,138,3.0,17.0,23,0.00,,,0.00,weatherlink.com 1.10,2013-02-11 06:56:00,
2013-02-11 02:11:00,37.6,4.0,30.16,North,355,2.0,19.0,24,0.00,,,0.00,weatherlink.com 1.10,2013-02-11 07:11:00,
2013-02-11 02:26:00,36.6,5.0,30.16,SSW,194,7.0,20.0,26,0.00,,,0.00,weatherlink.com 1.10,2013-02-11 07:26:00,
2013-02-11 02:42:00,35.6,7.0,30.16,East,94,1.0,13.0,30,0.00,,,0.00,weatherlink.com 1.10,2013-02-11 07:42:00,
2013-02-11 02:57:00,35.5,7.0,30.14,SSE,152,6.0,12.0,31,0.00,,,0.00,weatherlink.com 1.10,2013-02-11 07:57:00,
2013-02-11 03:12:00,34.3,10.0,30.13,South,175,2.0,11.0,36,0.00,,,0.00,weatherlink.com 1.10,2013-02-11 08:12:00,
2013-02-11 03:27:00,36.0,11.0,30.13,ESE,117,1.0,8.0,36,0.00,,,0.00,weatherlink.com 1.10,2013-02-11 08:27:00,
2013-02-11 03:42:00,36.7,13.0,30.13,WSW,254,5.0,16.0,37,0.00,,,0.00,weatherlink.com 1.10,2013-02-11 08:42:00,
2013-02-11 03:57:00,35.2,14.0,30.12,ESE,120,2.0,10.0,42,0.00,,,0.00,weatherlink.com 1.10,2013-02-11 08:57:00,
2013-02-11 04:12:00,34.1,15.0,30.12,ENE,74,9.0,12.0,45,0.00,,,0.00,weatherlink.com 1.10,2013-02-11 09:12:00,
2013-02-11 04:27:00,32.7,15.0,30.10,SE,136,1.0,11.0,49,0.00,,,0.00,weatherlink.com 1.10,2013-02-11 09:27:00,
2013-02-11 04:42:00,32.3,16.0,30.10,SW,215,4.0,10.0,51,0.00,,,0.00,weatherlink.com 1.10,2013-02-11 09:42:00,
2013-02-11 04:57:00,34.0,16.0,30.09,WNW,293,2.0,10.0,48,0.00,,,0.00,weatherlink.com 1.10,2013-02-11 09:57:00,
2013-02-11 05:12:00,34.7,17.0,30.07,ENE,67,2.0,13.0,49,0.00,,,0.00,weatherlink.com 1.10,2013-02-11 10:12:00,
2013-02-11 05:27:00,35.3,20.0,30.06,South,172,7.0,14.0,55,0.00,,,0.00,weatherlink.com 1.10,2013-02-11 10:27:00,
2013-02-11 05:42:00,35.3,20.0,30.05,SW,220,7.0,17.0,54,0.00,,,0.00,weatherlink.com 1.10,2013-02-11 10:42:00,
2013-02-11 05:57:00,34.3,22.0,30.04,South,183,7.0,17.0,61,0.00,,,0.00,weatherlink.com 1.10,2013-02-11 10:57:00,
2013-02-11 06:12:00,34.2,25.0,30.03,SSE,167,1.0,21.0,69,0.00,,,0.00,weatherlink.com 1.10,2013-02-11 11:12:00,
2013-02-11 06:28:00,34.2,27.0,30.02,WSW,237,22.0,22.0,74,0.00,,,0.00,weatherlink.com 1.10,2013-02-11 11:28:00,
2013-02-11 06:42:00,33.8,28.0,30.03,West,269,4.0,17.0,78,0.00,,,0.00,weatherlink.com 1.10,2013-02-11 11:42:00,
2013-02-11 06:57:00,33.9,28.0,30.00,ENE,75,8.0,26.0,78,0.00,,,0.00,weatherlink.com 1.10,2013-02-11 11:57:00,
2013-02-11 07:12:00,34.1,29.0,30.00,SSE,167,10.0,24.0,80,0.00,,,0.00,weatherlink.com 1.10,2013-02-11 12:12:00,
2013-02-11 07:27:00,34.1,29.0,29.99,SW,225,4.0,28.0,80,0.00,,,0.00,weatherlink.com 1.10,2013-02-11 12:27:00,
2013-02-11 07:43:00,33.8,29.0,29.99,ENE,75,5.0,18.0,81,0.00,,,0.00,weatherlink.com 1.10,2013-02-11 12:43:00,
2013-02-11 07:58:00,33.9,29.0,29.98,SSW,199,4.0,26.0,81,0.00,,,0.00,weatherlink.com 1.10,2013-02-11 12:58:00,
2013-02-11 08:13:00,35.2,30.0,29.96,East,94,3.0,19.0,81,0.00,,,0.00,weatherlink.com 1.10,2013-02-11 13:13:00,
2013-02-11 08:28:00,36.5,31.0,29.95,SSE,162,5.0,23.0,79,0.00,,,0.00,weatherlink.com 1.10,2013-02-11 13:28:00,
2013-02-11 08:43:00,37.2,32.0,29.96,SSE,163,20.0,25.0,80,0.00,,,0.00,weatherlink.com 1.10,2013-02-11 13:43:00,
2013-02-11 08:58:00,37.6,32.0,29.95,ESE,119,7.0,21.0,80,0.00,,,0.00,weatherlink.com 1.10,2013-02-11 13:58:00,
2013-02-11 09:13:00,38.2,33.0,29.94,SE,138,4.0,18.0,80,0.00,,,0.00,weatherlink.com 1.10,2013-02-11 14:13:00,
2013-02-11 09:28:00,39.6,34.0,29.93,SSE,159,7.0,22.0,81,0.01,,,0.01,weatherlink.com 1.10,2013-02-11 14:28:00,
2013-02-11 09:43:00,39.7,35.0,29.92,South,177,4.0,27.0,82,0.04,,,0.04,weatherlink.com 1.10,2013-02-11 14:43:00,
2013-02-11 09:58:00,39.4,34.0,29.91,WNW,296,10.0,22.0,82,0.08,,,0.08,weatherlink.com 1.10,2013-02-11 14:58:00,
2013-02-11 10:13:00,39.8,35.0,29.89,SSW,198,8.0,20.0,83,0.12,,,0.12,weatherlink.com 1.10,2013-02-11 15:13:00,
2013-02-11 10:28:00,40.0,35.0,29.87,South,189,5.0,19.0,82,0.12,,,0.13,weatherlink.com 1.10,2013-02-11 15:28:00,
2013-02-11 10:43:00,40.3,36.0,29.88,SSW,194,11.0,21.0,83,0.09,,,0.13,weatherlink.com 1.10,2013-02-11 15:43:00,
2013-02-11 10:58:00,40.3,36.0,29.86,ESE,109,9.0,20.0,84,0.05,,,0.13,weatherlink.com 1.10,2013-02-11 15:58:00,
2013-02-11 11:13:00,41.7,37.0,29.83,SW,225,9.0,14.0,83,0.01,,,0.13,weatherlink.com 1.10,2013-02-11 16:13:00,
2013-02-11 11:28:00,43.7,39.0,29.82,SSE,159,2.0,9.0,82,0.00,,,0.13,weatherlink.com 1.10,2013-02-11 16:28:00,
2013-02-11 11:43:00,44.6,38.0,29.82,NNW,336,6.0,10.0,79,0.00,,,0.13,weatherlink.com 1.10,2013-02-11 16:43:00,
2013-02-11 11:58:00,45.3,39.0,29.80,East,90,1.0,6.0,79,0.00,,,0.13,weatherlink.com 1.10,2013-02-11 16:58:00,
2013-02-11 12:13:00,46.5,40.0,29.79,East,84,1.0,13.0,77,0.00,,,0.13,weatherlink.com 1.10,2013-02-11 17:13:00,
2013-02-11 12:28:00,47.0,40.0,29.78,ESE,103,3.0,10.0,76,0.00,,,0.13,weatherlink.com 1.10,2013-02-11 17:28:00,
2013-02-11 12:44:00,48.0,41.0,29.76,NE,53,0.0,7.0,77,0.00,,,0.13,weatherlink.com 1.10,2013-02-11 17:44:00,
2013-02-11 12:58:00,47.6,40.0,29.75,ESE,113,2.0,7.0,74,0.00,,,0.13,weatherlink.com 1.10,2013-02-11 17:58:00,
2013-02-11 13:14:00,47.4,40.0,29.74,ESE,107,3.0,7.0,75,0.00,,,0.13,weatherlink.com 1.10,2013-02-11 18:14:00,
2013-02-11 13:28:00,47.3,40.0,29.74,WSW,248,6.0,10.0,75,0.00,,,0.13,weatherlink.com 1.10,2013-02-11 18:28:00,
2013-02-11 13:43:00,48.8,41.0,29.73,NW,315,3.0,16.0,74,0.00,,,0.13,weatherlink.com 1.10,2013-02-11 18:43:00,
2013-02-11 13:59:00,47.8,40.0,29.71,South,171,3.0,7.0,73,0.00,,,0.13,weatherlink.com 1.10,2013-02-11 18:59:00,
2013-02-11 14:14:00,48.1,40.0,29.69,SE,145,4.0,11.0,74,0.00,,,0.13,weatherlink.com 1.10,2013-02-11 19:14:00,
2013-02-11 14:29:00,48.2,40.0,29.69,ENE,57,4.0,8.0,74,0.00,,,0.13,weatherlink.com 1.10,2013-02-11 19:29:00,
2013-02-11 14:44:00,48.3,41.0,29.68,SW,215,2.0,10.0,75,0.00,,,0.13,weatherlink.com 1.10,2013-02-11 19:44:00,
2013-02-11 14:59:00,49.3,41.0,29.68,East,99,1.0,4.0,73,0.00,,,0.13,weatherlink.com 1.10,2013-02-11 19:59:00,
2013-02-11 15:14:00,48.6,41.0,29.67,SSE,165,2.0,9.0,74,0.00,,,0.13,weatherlink.com 1.10,2013-02-11 20:14:00,
2013-02-11 15:29:00,48.1,41.0,29.66,ENE,62,4.0,7.0,75,0.00,,,0.13,weatherlink.com 1.10,2013-02-11 20:29:00,
2013-02-11 15:44:00,49.5,42.0,29.65,East,99,1.0,13.0,74,0.00,,,0.13,weatherlink.com 1.10,2013-02-11 20:44:00,
2013-02-11 15:59:00,49.1,41.0,29.65,SSW,192,1.0,3.0,73,0.00,,,0.13,weatherlink.com 1.10,2013-02-11 20:59:00,
2013-02-11 16:14:00,48.8,41.0,29.64,SW,225,1.0,11.0,75,0.00,,,0.13,weatherlink.com 1.10,2013-02-11 21:14:00,
2013-02-11 16:29:00,49.1,41.0,29.64,North,9,3.0,5.0,74,0.00,,,0.13,weatherlink.com 1.10,2013-02-11 21:29:00,
2013-02-11 16:44:00,49.0,41.0,29.63,North,355,2.0,8.0,74,0.00,,,0.13,weatherlink.com 1.10,2013-02-11 21:44:00,
2013-02-11 16:59:00,48.3,40.0,29.63,NE,49,3.0,6.0,74,0.00,,,0.13,weatherlink.com 1.10,2013-02-11 21:59:00,
2013-02-11 17:14:00,48.3,40.0,29.63,NW,323,8.0,11.0,74,0.00,,,0.13,weatherlink.com 1.10,2013-02-11 22:14:00,
2013-02-11 17:29:00,48.5,41.0,29.62,South,180,2.0,7.0,74,0.00,,,0.13,weatherlink.com 1.10,2013-02-11 22:29:00,
2013-02-11 17:44:00,48.1,40.0,29.61,SSW,200,3.0,6.0,73,0.00,,,0.13,weatherlink.com 1.10,2013-02-11 22:44:00,
2013-02-11 17:59:00,47.1,40.0,29.61,NNW,348,2.0,8.0,75,0.00,,,0.13,weatherlink.com 1.10,2013-02-11 22:59:00,
2013-02-11 18:14:00,46.1,40.0,29.61,West,281,5.0,7.0,78,0.00,,,0.13,weatherlink.com 1.10,2013-02-11 23:14:00,
2013-02-11 18:29:00,44.5,38.0,29.61,NE,34,1.0,4.0,79,0.00,,,0.13,weatherlink.com 1.10,2013-02-11 23:29:00,
2013-02-11 18:44:00,42.1,37.0,29.61,NNW,342,0.0,3.0,81,0.00,,,0.13,weatherlink.com 1.10,2013-02-11 23:44:00,
2013-02-11 18:59:00,40.4,36.0,29.61,North,9,1.0,3.0,84,0.00,,,0.13,weatherlink.com 1.10,2013-02-11 23:59:00,
2013-02-11 19:14:00,39.2,37.0,29.61,South,188,2.0,4.0,90,0.00,,,0.13,weatherlink.com 1.10,2013-02-12 00:14:00,
2013-02-11 19:29:00,40.0,37.0,29.62,NNW,347,0.0,3.0,87,0.00,,,0.13,weatherlink.com 1.10,2013-02-12 00:29:00,
2013-02-11 19:44:00,40.5,37.0,29.62,NNW,340,0.0,2.0,88,0.00,,,0.13,weatherlink.com 1.10,2013-02-12 00:44:00,
2013-02-11 19:59:00,41.3,38.0,29.62,NNW,345,0.0,5.0,88,0.00,,,0.13,weatherlink.com 1.10,2013-02-12 00:59:00,
2013-02-11 20:14:00,42.3,39.0,29.63,NNW,331,4.0,9.0,87,0.00,,,0.13,weatherlink.com 1.10,2013-02-12 01:14:00,
2013-02-11 20:29:00,42.8,39.0,29.63,NE,39,3.0,5.0,86,0.00,,,0.13,weatherlink.com 1.10,2013-02-12 01:29:00,
2013-02-11 20:45:00,42.2,39.0,29.63,North,351,1.0,6.0,87,0.00,,,0.13,weatherlink.com 1.10,2013-02-12 01:45:00,
2013-02-11 20:59:00,41.4,39.0,29.64,NNW,337,3.0,7.0,90,0.00,,,0.13,weatherlink.com 1.10,2013-02-12 01:59:00,
2013-02-11 21:14:00,40.6,38.0,29.66,NW,321,8.0,19.0,90,0.01,,,0.14,weatherlink.com 1.10,2013-02-12 02:14:00,
2013-02-11 21:29:00,36.6,34.0,29.67,NNW,348,4.0,13.0,90,0.03,,,0.16,weatherlink.com 1.10,2013-02-12 02:29:00,
2013-02-11 21:44:00,35.9,34.0,29.67,North,5,3.0,9.0,91,0.03,,,0.16,weatherlink.com 1.10,2013-02-12 02:44:00,
2013-02-11 22:00:00,35.7,33.0,29.66,North,350,5.0,12.0,90,0.03,,,0.16,weatherlink.com 1.10,2013-02-12 03:00:00,
2013-02-11 22:15:00,35.6,32.0,29.65,NNE,19,6.0,9.0,88,0.02,,,0.16,weatherlink.com 1.10,2013-02-12 03:15:00,
2013-02-11 22:29:00,35.5,32.0,29.65,NNW,346,4.0,12.0,87,0.00,,,0.16,weatherlink.com 1.10,2013-02-12 03:29:00,
2013-02-11 22:44:00,35.3,31.0,29.64,NNW,348,6.0,10.0,84,0.00,,,0.16,weatherlink.com 1.10,2013-02-12 03:44:00,
2013-02-11 22:59:00,35.4,30.0,29.63,NNW,345,5.0,11.0,81,0.00,,,0.16,weatherlink.com 1.10,2013-02-12 03:59:00,
2013-02-11 23:14:00,35.6,30.0,29.65,North,355,5.0,20.0,79,0.00,,,0.16,weatherlink.com 1.10,2013-02-12 04:14:00,
2013-02-11 23:29:00,35.3,29.0,29.64,NW,317,9.0,11.0,78,0.00,,,0.16,weatherlink.com 1.10,2013-02-12 04:29:00,
2013-02-11 23:44:00,35.1,29.0,29.64,NNW,336,8.0,13.0,78,0.00,,,0.16,weatherlink.com 1.10,2013-02-12 04:44:00,